Andale, Kansas
Current Conditions -  °F | °C
As of 10:53 AM on Thursday 23 Oct 2014 (Local Time) from KICT Reporting Station
Overcast Overcast  
Wind Chill: 18°   Ceiling: 1000
Heat Index: 18°   Visibility: 8mi
Dew Point: 16°   Wind: 8mph
Humidity: 84%   Direction: 190°S
Pressure: 30.11"   Gusts: NA
Location:  37.79°N, 97.63°W
Report Text: KICT 231553Z 19007KT 8SM BKN010 OVC033 18/16 A3011 RMK AO2 SLP188 T01830156
Loading
Personal Weather Stations






























Interactive Weather Map
Tropical Storm Tracking
New forecast layout! Learn more

10-Day Weather Forecast

Advertisements
Track Severe Weather on mobile